createdAt,value
2023-04-15T00:02:14.726Z,100967.22
2023-04-15T00:04:41.439Z,100963.25
2023-04-15T00:07:08.832Z,100963.75
2023-04-15T00:09:35.371Z,100959.34
2023-04-15T00:12:02.137Z,100965.88
2023-04-15T00:14:28.778Z,100960.09
2023-04-15T00:16:57.646Z,100921.75
2023-04-15T00:19:25.494Z,100942.59
2023-04-15T00:21:52.147Z,100963.88
2023-04-15T00:24:20.170Z,100964.03
2023-04-15T00:26:47.173Z,100950.56
2023-04-15T00:29:14.503Z,100924.00
2023-04-15T00:31:42.284Z,100951.41
2023-04-15T00:34:08.804Z,100965.00
2023-04-15T00:36:35.847Z,100962.41
2023-04-15T00:39:03.382Z,100955.81
2023-04-15T00:41:29.972Z,100961.81
2023-04-15T00:43:56.551Z,100896.19
2023-04-15T00:46:23.456Z,100969.28
2023-04-15T00:48:51.396Z,100942.09
2023-04-15T00:51:18.048Z,100959.75
2023-04-15T00:53:44.857Z,100953.59
2023-04-15T00:56:11.746Z,100966.94
2023-04-15T00:58:38.356Z,100942.81
2023-04-15T01:01:05.357Z,100981.53
2023-04-15T01:03:32.200Z,100957.78
2023-04-15T01:06:02.212Z,100972.19
2023-04-15T01:08:31.012Z,100966.59
2023-04-15T01:10:59.384Z,100962.66
2023-04-15T01:13:26.900Z,100972.94
2023-04-15T01:15:53.924Z,100957.22
2023-04-15T01:18:21.215Z,100971.69
2023-04-15T01:20:47.790Z,100969.50
2023-04-15T01:23:14.640Z,100975.13
2023-04-15T01:25:42.619Z,100971.94
2023-04-15T01:28:10.039Z,100977.06
2023-04-15T01:30:36.782Z,100923.81
2023-04-15T01:33:03.509Z,100974.63
2023-04-15T01:35:30.142Z,100952.25
2023-04-15T01:38:05.116Z,100960.59
2023-04-15T01:40:31.739Z,100924.81
2023-04-15T01:42:58.329Z,100922.91
2023-04-15T01:45:24.943Z,100914.41
2023-04-15T01:47:51.519Z,100958.16
2023-04-15T01:50:18.305Z,100965.00
2023-04-15T01:52:44.904Z,100964.25
2023-04-15T01:55:11.578Z,100910.59
2023-04-15T01:57:38.207Z,100955.44
2023-04-15T02:00:05.395Z,100956.56
2023-04-15T02:02:32.101Z,100935.63
2023-04-15T02:04:59.087Z,100917.97
2023-04-15T02:07:26.533Z,100946.91
2023-04-15T02:09:53.438Z,100931.84
2023-04-15T02:12:20.055Z,100932.22
2023-04-15T02:14:47.389Z,100895.09
2023-04-15T02:17:13.957Z,100927.81
2023-04-15T02:19:41.364Z,100935.50
2023-04-15T02:22:09.456Z,100918.88
2023-04-15T02:24:36.568Z,100915.19
2023-04-15T02:27:03.707Z,100879.63
2023-04-15T02:29:32.496Z,100934.03
2023-04-15T02:31:59.064Z,100942.47
2023-04-15T02:34:27.233Z,100916.16
2023-04-15T02:36:57.926Z,100952.38
2023-04-15T02:39:24.635Z,100944.41
2023-04-15T02:41:54.151Z,100943.94
2023-04-15T02:44:21.082Z,100941.13
2023-04-15T02:46:52.732Z,100938.94
2023-04-15T02:49:19.394Z,100937.09
2023-04-15T02:51:49.613Z,100936.13
2023-04-15T02:54:17.972Z,100930.63
2023-04-15T02:56:44.579Z,100930.84
2023-04-15T02:59:13.129Z,100929.00
2023-04-15T03:01:39.815Z,100938.94
2023-04-15T03:04:08.090Z,100879.94
2023-04-15T03:06:35.662Z,100869.78
2023-04-15T03:09:02.587Z,100947.38
2023-04-15T03:11:30.016Z,100862.31
2023-04-15T03:13:56.679Z,100946.41
2023-04-15T03:16:23.263Z,100950.66
2023-04-15T03:18:49.853Z,100944.31
2023-04-15T03:21:16.688Z,100946.13
2023-04-15T03:23:43.276Z,100764.38
2023-04-15T03:26:09.902Z,100934.41
2023-04-15T03:28:36.605Z,100923.53
2023-04-15T03:31:03.174Z,100881.53
2023-04-15T03:33:29.751Z,100912.97
2023-04-15T03:35:56.689Z,100935.75
2023-04-15T03:38:23.259Z,100943.59
2023-04-15T03:40:49.844Z,100936.50
2023-04-15T03:43:16.737Z,100953.22
2023-04-15T03:45:43.342Z,100885.31
2023-04-15T03:48:17.221Z,100940.38
2023-04-15T03:50:44.891Z,100937.97
2023-04-15T03:53:11.478Z,100936.84
2023-04-15T03:55:38.180Z,100754.25
2023-04-15T03:58:04.833Z,100929.88
2023-04-15T04:00:31.688Z,100950.19
2023-04-15T04:02:58.722Z,100956.94
2023-04-15T04:05:26.162Z,100950.44
2023-04-15T04:07:52.695Z,100946.91
2023-04-15T04:10:19.316Z,100880.06
2023-04-15T04:12:46.051Z,100954.84
2023-04-15T04:15:12.676Z,100960.84
2023-04-15T04:17:39.313Z,100960.81
2023-04-15T04:20:06.902Z,100909.03
2023-04-15T04:22:40.785Z,100920.44
2023-04-15T04:25:08.996Z,100967.44
2023-04-15T04:27:36.065Z,100915.06
2023-04-15T04:30:02.591Z,100969.28
2023-04-15T04:32:29.197Z,100968.78
2023-04-15T04:34:56.141Z,100959.00
2023-04-15T04:37:23.755Z,100963.19
2023-04-15T04:39:50.428Z,100961.09
2023-04-15T04:42:17.026Z,100967.94
2023-04-15T04:44:43.687Z,100890.31
2023-04-15T04:47:10.592Z,100970.50
2023-04-15T04:49:37.147Z,100960.34
2023-04-15T04:52:04.083Z,100949.69
2023-04-15T04:54:31.648Z,100963.41
2023-04-15T04:56:58.176Z,100904.53
2023-04-15T04:59:25.126Z,100960.84
2023-04-15T05:01:52.201Z,100956.31
2023-04-15T05:04:18.919Z,100967.34
2023-04-15T05:06:45.919Z,100962.91
2023-04-15T05:09:12.545Z,100965.13
2023-04-15T05:11:39.113Z,100975.25
2023-04-15T05:14:05.628Z,100955.19
2023-04-15T05:16:32.162Z,100955.81
2023-04-15T05:18:58.734Z,100973.09
2023-04-15T05:21:26.083Z,100961.09
2023-04-15T05:23:52.925Z,100945.53
2023-04-15T05:26:19.454Z,100942.59
2023-04-15T05:28:46.364Z,100965.00
2023-04-15T05:31:13.460Z,100877.00
2023-04-15T05:33:40.717Z,100933.31
2023-04-15T05:36:07.575Z,100966.44
2023-04-15T05:38:34.222Z,100965.69
2023-04-15T05:41:01.036Z,100966.19
2023-04-15T05:43:27.666Z,100967.06
2023-04-15T05:45:54.252Z,100918.34
2023-04-15T05:48:21.076Z,100951.28
2023-04-15T05:50:47.781Z,100966.06
2023-04-15T05:53:14.378Z,100968.75
2023-04-15T05:55:41.253Z,100949.56
2023-04-15T05:58:07.883Z,100966.31
2023-04-15T06:00:34.743Z,100957.34
2023-04-15T06:03:01.441Z,100981.59
2023-04-15T06:05:28.302Z,100985.25
2023-04-15T06:07:55.002Z,100976.44
2023-04-15T06:10:21.559Z,100977.19
2023-04-15T06:12:48.154Z,100927.16
2023-04-15T06:15:15.010Z,100986.50
2023-04-15T06:17:41.938Z,100945.75
2023-04-15T06:20:08.990Z,100987.00
2023-04-15T06:22:37.395Z,100958.88
2023-04-15T06:25:04.268Z,100990.91
2023-04-15T06:27:31.020Z,100958.38
2023-04-15T06:29:57.651Z,100936.09
2023-04-15T06:32:24.199Z,100980.75
2023-04-15T06:34:50.895Z,100996.84
2023-04-15T06:37:17.453Z,100998.94
2023-04-15T06:39:44.875Z,100993.16
2023-04-15T06:42:12.268Z,100998.69
2023-04-15T06:44:39.100Z,101000.25
2023-04-15T06:47:06.222Z,100996.31
2023-04-15T06:49:33.929Z,101000.09
2023-04-15T06:52:00.833Z,100992.47
2023-04-15T06:54:27.695Z,101000.81
2023-04-15T06:56:54.512Z,100989.38
2023-04-15T06:59:21.069Z,100987.47
2023-04-15T07:01:47.896Z,100986.06
2023-04-15T07:04:14.560Z,100991.88
2023-04-15T07:06:42.045Z,100989.97
2023-04-15T07:09:08.933Z,100976.66
2023-04-15T07:11:35.488Z,100998.59
2023-04-15T07:14:02.362Z,101009.34
2023-04-15T07:16:30.035Z,101001.00
2023-04-15T07:18:57.306Z,100997.94
2023-04-15T07:21:24.922Z,100946.69
2023-04-15T07:23:52.122Z,100994.13
2023-04-15T07:26:18.801Z,100976.16
2023-04-15T07:28:46.823Z,100995.28
2023-04-15T07:31:14.010Z,100971.09
2023-04-15T07:33:43.619Z,100932.22
2023-04-15T07:36:10.735Z,101000.69
2023-04-15T07:38:37.503Z,100996.97
2023-04-15T07:41:05.051Z,101010.00
2023-04-15T07:43:31.759Z,100974.03
2023-04-15T07:45:58.325Z,101009.66
2023-04-15T07:48:24.957Z,101013.88
2023-04-15T07:50:51.813Z,101000.50
2023-04-15T07:53:18.413Z,101030.53
2023-04-15T07:55:44.967Z,100978.69
2023-04-15T07:58:11.777Z,101013.75
2023-04-15T08:00:38.694Z,101019.06
2023-04-15T08:03:05.495Z,101008.88
2023-04-15T08:05:32.279Z,101001.09
2023-04-15T08:07:59.091Z,101031.34
2023-04-15T08:10:25.816Z,100953.19
2023-04-15T08:12:54.442Z,101011.13
2023-04-15T08:15:21.174Z,100966.69
2023-04-15T08:17:48.077Z,100963.22
2023-04-15T08:20:14.776Z,101024.22
2023-04-15T08:22:42.143Z,100954.38
2023-04-15T08:25:09.753Z,100995.13
2023-04-15T08:27:36.601Z,101034.28
2023-04-15T08:30:05.324Z,101026.28
2023-04-15T08:32:32.215Z,101006.97
2023-04-15T08:34:58.891Z,101030.22
2023-04-15T08:37:25.469Z,101005.78
2023-04-15T08:39:52.363Z,100944.16
2023-04-15T08:42:27.880Z,101043.91
2023-04-15T08:44:55.785Z,101039.25
2023-04-15T08:47:27.444Z,101040.66
2023-04-15T08:49:55.666Z,101025.91
2023-04-15T08:52:23.102Z,100971.41
2023-04-15T08:54:49.835Z,100859.25
2023-04-15T08:57:16.618Z,100980.06
2023-04-15T08:59:44.019Z,100961.78
2023-04-15T09:02:12.317Z,101037.19
2023-04-15T09:04:38.897Z,101042.88
2023-04-15T09:07:06.313Z,100893.84
2023-04-15T09:09:33.227Z,101035.59
2023-04-15T09:12:02.053Z,101027.50
2023-04-15T09:14:32.325Z,101015.84
2023-04-15T09:17:04.057Z,101046.88
2023-04-15T09:19:31.696Z,101042.59
2023-04-15T09:21:59.710Z,101029.50
2023-04-15T09:24:37.585Z,100895.41
2023-04-15T09:27:04.555Z,101033.31
2023-04-15T09:29:31.750Z,101039.88
2023-04-15T09:32:10.937Z,101034.00
2023-04-15T09:34:38.159Z,101027.34
2023-04-15T09:37:04.844Z,101022.69
2023-04-15T09:39:48.846Z,101021.22
2023-04-15T09:42:17.703Z,101015.78
2023-04-15T09:44:44.553Z,100948.03
2023-04-15T09:47:27.887Z,101028.91
2023-04-15T09:50:01.985Z,101027.94
2023-04-15T09:52:29.902Z,101031.34
2023-04-15T09:55:00.413Z,100995.63
2023-04-15T09:57:35.886Z,101022.28
2023-04-15T10:00:09.051Z,101013.84
2023-04-15T10:02:36.889Z,100964.06
2023-04-15T10:05:04.095Z,101024.47
2023-04-15T10:07:31.038Z,101016.78
2023-04-15T10:10:00.006Z,100976.06
2023-04-15T10:12:27.990Z,101011.00
2023-04-15T10:15:04.961Z,100986.75
2023-04-15T10:17:35.531Z,101021.22
2023-04-15T10:20:04.978Z,101007.91
2023-04-15T10:22:32.828Z,101032.84
2023-04-15T10:25:01.061Z,101030.13
2023-04-15T10:27:28.114Z,101024.50
2023-04-15T10:29:55.019Z,101012.38
2023-04-15T10:32:22.785Z,101011.53
2023-04-15T10:34:52.392Z,101039.31
2023-04-15T10:37:22.123Z,101024.81
2023-04-15T10:39:48.843Z,100975.84
2023-04-15T10:42:17.636Z,101017.91
2023-04-15T10:44:54.525Z,101006.44
2023-04-15T10:47:22.282Z,100947.91
2023-04-15T10:49:58.239Z,100985.59
2023-04-15T10:52:27.768Z,100999.00
2023-04-15T10:55:14.632Z,100990.09
2023-04-15T10:57:42.508Z,100972.03
2023-04-15T11:00:09.281Z,100984.50
2023-04-15T11:02:43.574Z,100983.31
2023-04-15T11:05:11.886Z,100988.13
2023-04-15T11:07:44.449Z,100986.72
2023-04-15T11:10:14.010Z,101002.66
2023-04-15T11:12:41.456Z,101008.41
2023-04-15T11:15:39.034Z,101008.63
2023-04-15T11:18:19.809Z,101009.34
2023-04-15T11:21:00.197Z,101008.31
2023-04-15T11:23:36.126Z,101011.97
2023-04-15T11:26:07.033Z,100978.88
2023-04-15T11:28:33.681Z,100975.03
2023-04-15T11:31:07.368Z,101012.09
2023-04-15T11:33:33.987Z,101022.00
2023-04-15T11:36:01.601Z,101017.63
2023-04-15T11:38:28.261Z,101032.63
2023-04-15T11:40:55.027Z,101032.69
2023-04-15T11:43:23.364Z,101047.66
2023-04-15T11:45:57.511Z,101050.22
2023-04-15T11:48:27.151Z,101042.69
2023-04-15T11:50:59.310Z,101040.63
2023-04-15T11:53:37.512Z,101038.97
2023-04-15T11:56:04.298Z,101029.00
2023-04-15T11:58:31.822Z,100981.59
2023-04-15T12:01:00.314Z,101042.28
2023-04-15T12:03:32.206Z,101004.00
2023-04-15T12:06:15.164Z,101033.75
2023-04-15T12:09:15.484Z,101058.81
2023-04-15T12:11:47.583Z,101057.75
2023-04-15T12:14:31.386Z,101063.44
2023-04-15T12:17:05.556Z,101068.09
2023-04-15T12:19:36.924Z,101080.84
2023-04-15T12:22:11.991Z,101078.28
2023-04-15T12:24:39.649Z,101083.88
2023-04-15T12:27:11.928Z,101062.03
2023-04-15T12:29:40.995Z,101051.34
2023-04-15T12:32:12.417Z,101084.06
2023-04-15T12:34:40.529Z,101067.41
2023-04-15T12:37:11.850Z,101082.66
2023-04-15T12:39:41.315Z,101087.41
2023-04-15T12:42:09.105Z,101109.69
2023-04-15T12:44:37.170Z,101080.31
2023-04-15T12:47:04.236Z,101111.03
2023-04-15T12:49:32.773Z,101114.78
2023-04-15T12:52:00.972Z,101097.56
2023-04-15T12:54:28.710Z,101115.59
2023-04-15T12:56:55.999Z,101070.91
2023-04-15T12:59:24.288Z,101092.56
2023-04-15T13:01:52.530Z,101073.69
2023-04-15T13:04:20.901Z,101112.38
2023-04-15T13:06:47.924Z,101114.59
2023-04-15T13:09:15.012Z,101102.50
2023-04-15T13:11:41.993Z,101112.72
2023-04-15T13:14:09.836Z,101123.81
2023-04-15T13:16:36.577Z,101117.00
2023-04-15T13:19:04.154Z,101115.63
2023-04-15T13:21:36.108Z,101121.94
2023-04-15T13:24:04.017Z,101126.53
2023-04-15T13:26:31.941Z,101124.66
2023-04-15T13:28:58.795Z,101129.25
2023-04-15T13:31:25.683Z,101091.59
2023-04-15T13:33:52.389Z,101130.13
2023-04-15T13:36:19.469Z,101129.78
2023-04-15T13:38:46.199Z,101055.31
2023-04-15T13:41:13.482Z,101066.56
2023-04-15T13:43:40.907Z,101134.66
2023-04-15T13:46:07.514Z,101134.22
2023-04-15T13:48:34.098Z,101109.47
2023-04-15T13:51:00.904Z,101081.34
2023-04-15T13:53:37.759Z,101131.34
2023-04-15T13:56:10.058Z,101134.63
2023-04-15T13:58:37.775Z,101114.00
2023-04-15T14:01:07.090Z,101130.72
2023-04-15T14:03:35.480Z,101122.06
2023-04-15T14:06:02.389Z,101111.09
2023-04-15T14:08:30.337Z,101115.84
2023-04-15T14:10:57.906Z,101149.88
2023-04-15T14:13:24.792Z,101141.06
2023-04-15T14:15:51.461Z,101151.53
2023-04-15T14:18:18.051Z,101148.81
2023-04-15T14:20:49.907Z,101099.56
2023-04-15T14:23:16.458Z,101149.03
2023-04-15T14:25:43.610Z,101113.69
2023-04-15T14:28:11.214Z,101154.50
2023-04-15T14:30:37.897Z,101154.31
2023-04-15T14:33:04.562Z,101159.56
2023-04-15T14:35:31.549Z,101164.56
2023-04-15T14:37:58.243Z,101166.94
2023-04-15T14:40:25.019Z,101141.28
2023-04-15T14:42:51.676Z,101176.69
2023-04-15T14:45:18.549Z,101168.59
2023-04-15T14:47:45.270Z,101148.19
2023-04-15T14:50:12.183Z,101185.22
2023-04-15T14:52:39.070Z,101186.88
2023-04-15T14:55:07.399Z,101197.25
2023-04-15T14:57:34.018Z,101203.81
2023-04-15T15:00:00.776Z,101190.25
2023-04-15T15:02:38.481Z,101202.06
2023-04-15T15:05:07.215Z,101156.25
2023-04-15T15:07:34.143Z,101207.25
2023-04-15T15:10:00.996Z,101180.78
2023-04-15T15:12:27.603Z,101215.31
2023-04-15T15:14:55.961Z,101226.97
2023-04-15T15:17:22.656Z,101224.34
2023-04-15T15:19:49.504Z,101219.94
2023-04-15T15:22:16.116Z,101221.81
2023-04-15T15:24:42.715Z,101227.59
2023-04-15T15:27:09.755Z,101229.84
2023-04-15T15:29:38.472Z,101228.50
2023-04-15T15:32:05.701Z,101240.06
2023-04-15T15:34:32.329Z,101218.09
2023-04-15T15:37:00.974Z,101231.25
2023-04-15T15:39:27.905Z,101246.63
2023-04-15T15:41:54.609Z,101248.50
2023-04-15T15:44:21.257Z,101253.31
2023-04-15T15:46:47.982Z,101253.00
2023-04-15T15:49:14.739Z,101244.25
2023-04-15T15:51:41.412Z,101255.69
2023-04-15T15:54:08.003Z,101262.75
2023-04-15T15:56:35.250Z,101264.97
2023-04-15T15:59:01.926Z,101261.59
2023-04-15T16:01:28.685Z,101260.69
2023-04-15T16:03:55.544Z,101268.53
2023-04-15T16:06:22.216Z,101232.59
2023-04-15T16:08:48.846Z,101247.00
2023-04-15T16:11:15.626Z,101284.44
2023-04-15T16:13:42.245Z,101303.06
2023-04-15T16:16:08.894Z,101296.47
2023-04-15T16:18:35.630Z,101297.44
2023-04-15T16:21:02.376Z,101232.09
2023-04-15T16:23:29.121Z,101310.53
2023-04-15T16:25:56.035Z,101298.66
2023-04-15T16:28:26.764Z,101321.72
2023-04-15T16:30:54.522Z,101280.63
2023-04-15T16:33:21.317Z,101325.16
2023-04-15T16:35:47.992Z,101304.13
2023-04-15T16:38:14.628Z,101315.34
2023-04-15T16:40:41.479Z,101287.69
2023-04-15T16:43:11.294Z,101331.22
2023-04-15T16:45:38.132Z,101288.06
2023-04-15T16:48:05.017Z,101298.56
2023-04-15T16:50:31.877Z,101342.53
2023-04-15T16:52:58.455Z,101336.25
2023-04-15T16:55:25.121Z,101344.00
2023-04-15T16:58:02.103Z,101360.00
2023-04-15T17:00:31.354Z,101350.25
2023-04-15T17:02:58.875Z,101364.56
2023-04-15T17:05:27.776Z,101317.13
2023-04-15T17:07:54.958Z,101346.25
2023-04-15T17:10:22.172Z,101374.09
2023-04-15T17:12:52.431Z,101373.97
2023-04-15T17:15:20.061Z,101384.50
2023-04-15T17:17:46.871Z,101384.09
2023-04-15T17:20:13.599Z,101382.25
2023-04-15T17:22:40.446Z,101358.41
2023-04-15T17:25:09.182Z,101373.06
2023-04-15T17:27:35.871Z,101345.53
2023-04-15T17:30:02.542Z,101312.00
2023-04-15T17:32:32.110Z,101339.94
2023-04-15T17:34:58.782Z,101365.63
2023-04-15T17:37:25.804Z,101406.06
2023-04-15T17:39:52.696Z,101406.19
2023-04-15T17:42:19.445Z,101413.78
2023-04-15T17:44:46.162Z,101406.03
2023-04-15T17:47:12.861Z,101402.47
2023-04-15T17:49:39.440Z,101414.72
2023-04-15T17:52:06.466Z,101421.44
2023-04-15T17:54:33.120Z,101426.59
2023-04-15T17:57:00.389Z,101427.09
2023-04-15T17:59:27.732Z,101424.25
2023-04-15T18:01:54.385Z,101422.78
2023-04-15T18:04:22.097Z,101444.03
2023-04-15T18:06:51.876Z,101439.31
2023-04-15T18:09:18.581Z,101442.81
2023-04-15T18:11:47.457Z,101447.41
2023-04-15T18:14:17.724Z,101443.19
2023-04-15T18:16:53.545Z,101465.06
2023-04-15T18:19:21.849Z,101468.03
2023-04-15T18:21:48.393Z,101467.50
2023-04-15T18:24:16.212Z,101481.97
2023-04-15T18:26:43.263Z,101483.63
2023-04-15T18:29:10.858Z,101488.72
2023-04-15T18:31:37.433Z,101495.97
2023-04-15T18:34:06.602Z,101494.31
2023-04-15T18:36:33.449Z,101492.97
2023-04-15T18:39:00.120Z,101504.19
2023-04-15T18:41:26.737Z,101506.50
2023-04-15T18:43:54.792Z,101524.19
2023-04-15T18:46:21.470Z,101486.78
2023-04-15T18:48:48.154Z,101527.78
2023-04-15T18:51:15.541Z,101542.25
2023-04-15T18:53:42.195Z,101529.22
2023-04-15T18:56:08.769Z,101566.22
2023-04-15T18:59:10.157Z,101541.38
2023-04-15T19:01:22.195Z,101553.19
2023-04-15T19:03:48.836Z,101555.88
2023-04-15T19:06:15.574Z,101554.03
2023-04-15T19:08:42.487Z,101554.41
2023-04-15T19:11:09.085Z,101562.41
2023-04-15T19:13:35.753Z,101562.28
2023-04-15T19:16:02.370Z,101518.53
2023-04-15T19:18:29.013Z,101562.88
2023-04-15T19:20:56.797Z,101490.53
2023-04-15T19:23:24.005Z,101554.88
2023-04-15T19:25:50.819Z,101590.88
2023-04-15T19:28:17.386Z,101565.72
2023-04-15T19:30:44.071Z,101597.25
2023-04-15T19:33:10.678Z,101585.06
2023-04-15T19:35:38.442Z,101611.50
2023-04-15T19:38:05.379Z,101600.47
2023-04-15T19:40:32.025Z,101617.28
2023-04-15T19:42:58.644Z,101581.47
2023-04-15T19:45:25.405Z,101555.97
2023-04-15T19:47:53.581Z,101562.97
2023-04-15T19:50:24.816Z,101629.66
2023-04-15T19:52:51.495Z,101583.38
2023-04-15T19:55:18.349Z,101634.09
2023-04-15T19:57:44.936Z,101631.47
2023-04-15T20:00:12.091Z,101619.19
2023-04-15T20:02:38.866Z,101630.59
2023-04-15T20:05:10.012Z,101635.28
2023-04-15T20:07:36.767Z,101635.31
2023-04-15T20:10:12.088Z,101632.97
2023-04-15T20:12:51.625Z,101635.94
2023-04-15T20:15:20.256Z,101614.28
2023-04-15T20:17:46.890Z,101623.13
2023-04-15T20:20:13.569Z,101637.88
2023-04-15T20:22:40.325Z,101639.63
2023-04-15T20:25:07.508Z,101650.41
2023-04-15T20:27:34.092Z,101627.91
2023-04-15T20:30:00.712Z,101623.84
2023-04-15T20:32:28.489Z,101612.00
2023-04-15T20:34:55.303Z,101657.50
2023-04-15T20:37:22.539Z,101670.50
2023-04-15T20:39:49.439Z,101660.19
2023-04-15T20:42:16.391Z,101639.22
2023-04-15T20:44:42.976Z,101606.16
2023-04-15T20:47:09.652Z,101661.50
2023-04-15T20:49:38.020Z,101644.28
2023-04-15T20:52:06.629Z,101650.38
2023-04-15T20:54:33.647Z,101669.31
2023-04-15T20:57:01.664Z,101665.13
2023-04-15T20:59:28.382Z,101670.13
2023-04-15T21:01:57.122Z,101680.34
2023-04-15T21:04:25.197Z,101647.44
2023-04-15T21:06:55.075Z,101678.78
2023-04-15T21:09:21.929Z,101644.78
2023-04-15T21:14:19.044Z,101694.81
2023-04-15T21:16:45.839Z,101685.19
2023-04-15T21:19:12.659Z,101648.13
2023-04-15T21:21:39.384Z,101700.94
2023-04-15T21:24:07.877Z,101705.88
2023-04-15T21:26:36.310Z,101688.88
2023-04-15T21:29:03.582Z,101694.34
2023-04-15T21:31:30.661Z,101713.75
2023-04-15T21:33:57.343Z,101702.66
2023-04-15T21:36:23.954Z,101700.72
2023-04-15T21:38:50.586Z,101706.75
2023-04-15T21:41:17.191Z,101672.84
2023-04-15T21:43:43.787Z,101720.25
2023-04-15T21:46:23.033Z,101723.16
2023-04-15T21:48:53.591Z,101725.31
2023-04-15T21:51:21.638Z,101733.41
2023-04-15T21:53:48.502Z,101702.38
2023-04-15T21:56:15.099Z,101743.56
2023-04-15T21:58:41.832Z,101745.06
2023-04-15T22:01:08.520Z,101540.41
2023-04-15T22:03:35.692Z,101724.16
2023-04-15T22:06:03.222Z,101746.38
2023-04-15T22:08:33.632Z,101711.63
2023-04-15T22:11:05.188Z,101744.44
2023-04-15T22:13:31.742Z,101749.72
2023-04-15T22:15:58.380Z,101747.22
2023-04-15T22:18:25.009Z,101740.75
2023-04-15T22:20:51.768Z,101738.59
2023-04-15T22:23:20.543Z,101687.81
2023-04-15T22:25:48.792Z,101695.13
2023-04-15T22:28:15.459Z,101751.63
2023-04-15T22:30:42.632Z,101752.72
2023-04-15T22:33:09.997Z,101722.00
2023-04-15T22:35:37.545Z,101757.25
2023-04-15T22:38:05.220Z,101748.53
2023-04-15T22:40:31.811Z,101755.53
2023-04-15T22:42:58.575Z,101760.56
2023-04-15T22:45:25.182Z,101759.19
2023-04-15T22:47:51.762Z,101699.88
2023-04-15T22:50:18.581Z,101717.53
2023-04-15T22:52:48.410Z,101765.66
2023-04-15T22:55:15.592Z,101732.06
2023-04-15T22:57:42.117Z,101763.50
2023-04-15T23:00:09.499Z,101777.59
2023-04-15T23:02:36.196Z,101768.50
2023-04-15T23:05:12.069Z,101747.00
2023-04-15T23:07:40.301Z,101778.25
2023-04-15T23:10:08.168Z,101797.59
2023-04-15T23:12:34.801Z,101744.06
2023-04-15T23:15:01.497Z,101799.19
2023-04-15T23:17:28.159Z,101803.53
2023-04-15T23:19:54.830Z,101731.66
2023-04-15T23:22:21.418Z,101748.38
2023-04-15T23:24:47.987Z,101811.50
2023-04-15T23:27:14.614Z,101815.94
2023-04-15T23:29:41.214Z,101768.75
2023-04-15T23:32:07.856Z,101813.78
2023-04-15T23:34:34.413Z,101758.19
2023-04-15T23:37:01.134Z,101811.72
2023-04-15T23:39:27.791Z,101811.66
2023-04-15T23:41:54.407Z,101812.03
2023-04-15T23:44:20.989Z,101815.06
2023-04-15T23:46:47.593Z,101811.81
2023-04-15T23:49:14.379Z,101800.53
2023-04-15T23:51:41.414Z,101816.75
2023-04-15T23:54:07.965Z,101806.22
2023-04-15T23:56:34.531Z,101811.50
2023-04-15T23:59:01.154Z,101782.41
